createdAt,value
2019-02-06T00:00:31.555Z,90.70
2019-02-06T00:04:36.750Z,90.40
2019-02-06T00:08:41.572Z,90.50
2019-02-06T00:12:47.022Z,90.50
2019-02-06T00:16:51.962Z,90.60
2019-02-06T00:20:57.097Z,90.60
2019-02-06T00:25:01.926Z,90.60
2019-02-06T00:29:06.761Z,90.40
2019-02-06T00:33:11.593Z,90.30
2019-02-06T00:37:16.401Z,90.40
2019-02-06T00:41:21.236Z,90.40
2019-02-06T00:45:26.235Z,90.50
2019-02-06T00:49:31.064Z,90.50
2019-02-06T00:53:36.867Z,90.50
2019-02-06T00:57:42.037Z,90.40
2019-02-06T01:01:46.951Z,90.50
2019-02-06T01:05:51.836Z,90.60
2019-02-06T01:09:56.859Z,90.60
2019-02-06T01:14:01.850Z,90.60
2019-02-06T01:18:06.644Z,90.60
2019-02-06T01:22:11.476Z,90.50
2019-02-06T01:26:16.300Z,90.70
2019-02-06T01:30:23.324Z,90.70
2019-02-06T01:34:28.157Z,90.80
2019-02-06T01:38:32.964Z,91.00
2019-02-06T01:42:38.248Z,91.00
2019-02-06T01:46:43.172Z,90.80
2019-02-06T01:50:48.014Z,91.00
2019-02-06T01:54:53.813Z,91.10
2019-02-06T01:58:58.651Z,91.00
2019-02-06T02:03:03.479Z,91.00
2019-02-06T02:07:08.296Z,91.10
2019-02-06T02:11:13.220Z,91.10
2019-02-06T02:15:19.079Z,91.00
2019-02-06T02:19:23.883Z,90.90
2019-02-06T02:23:28.720Z,90.90
2019-02-06T02:27:34.000Z,91.00
2019-02-06T02:31:39.246Z,91.00
2019-02-06T02:35:44.212Z,91.30
2019-02-06T02:39:49.079Z,91.50
2019-02-06T02:43:54.947Z,91.90
2019-02-06T02:47:59.895Z,92.30
2019-02-06T02:52:04.899Z,92.80
2019-02-06T02:56:12.244Z,93.30
2019-02-06T03:00:28.295Z,93.60
2019-02-06T03:04:33.284Z,93.80
2019-02-06T03:08:38.111Z,94.10
2019-02-06T03:12:42.975Z,94.30
2019-02-06T03:16:47.952Z,94.50
2019-02-06T03:20:52.850Z,94.80
2019-02-06T03:24:57.823Z,95.00
2019-02-06T03:29:02.821Z,95.30
2019-02-06T03:33:08.032Z,95.60
2019-02-06T03:37:12.907Z,95.70
2019-02-06T03:41:17.838Z,95.80
2019-02-06T03:45:22.783Z,96.00
2019-02-06T03:49:27.713Z,96.20
2019-02-06T03:53:32.535Z,96.60
2019-02-06T03:57:37.372Z,96.60
2019-02-06T04:01:43.164Z,96.70
2019-02-06T04:05:47.997Z,96.70
2019-02-06T04:09:53.148Z,96.90
2019-02-06T04:13:58.949Z,97.00
2019-02-06T04:18:03.980Z,96.90
2019-02-06T04:22:09.112Z,97.00
2019-02-06T04:26:13.985Z,97.00
2019-02-06T04:30:19.600Z,96.90
2019-02-06T04:34:24.438Z,97.10
2019-02-06T04:38:29.268Z,97.20
2019-02-06T04:42:34.146Z,97.10
2019-02-06T04:46:39.010Z,97.30
2019-02-06T04:50:43.933Z,97.50
2019-02-06T04:54:49.026Z,97.60
2019-02-06T04:58:53.917Z,97.60
2019-02-06T05:02:58.747Z,97.40
2019-02-06T05:07:03.584Z,97.50
2019-02-06T05:11:08.425Z,97.50
2019-02-06T05:15:14.995Z,97.60
2019-02-06T05:19:19.814Z,97.50
2019-02-06T05:23:24.652Z,97.60
2019-02-06T05:27:29.642Z,97.70
2019-02-06T05:31:34.436Z,97.80
2019-02-06T05:35:39.245Z,97.80
2019-02-06T05:39:44.376Z,97.80
2019-02-06T05:43:49.211Z,97.70
2019-02-06T05:47:54.050Z,97.70
2019-02-06T05:51:58.987Z,97.70
2019-02-06T05:56:04.334Z,97.60
2019-02-06T06:00:15.003Z,97.50
2019-02-06T06:04:19.959Z,97.30
2019-02-06T06:08:25.511Z,97.10
2019-02-06T06:12:30.820Z,97.10
2019-02-06T06:16:36.305Z,97.00
2019-02-06T06:20:41.153Z,97.00
2019-02-06T06:24:46.328Z,97.10
2019-02-06T06:28:51.232Z,97.00
2019-02-06T06:32:56.108Z,96.90
2019-02-06T06:37:02.958Z,96.80
2019-02-06T06:41:07.519Z,96.70
2019-02-06T06:45:20.560Z,96.50
2019-02-06T06:49:25.435Z,96.40
2019-02-06T06:53:30.340Z,96.20
2019-02-06T06:57:35.275Z,96.50
2019-02-06T07:01:40.387Z,96.00
2019-02-06T07:05:45.223Z,94.00
2019-02-06T07:09:51.051Z,90.50
2019-02-06T07:13:55.878Z,83.60
2019-02-06T07:18:00.897Z,78.70
2019-02-06T07:22:05.907Z,76.20
2019-02-06T07:26:10.860Z,74.80
2019-02-06T07:30:29.861Z,71.60
2019-02-06T07:34:35.023Z,70.40
2019-02-06T07:38:39.855Z,66.70
2019-02-06T07:42:47.037Z,61.20
2019-02-06T07:46:52.172Z,58.70
2019-02-06T07:50:57.263Z,54.30
2019-02-06T07:55:02.555Z,53.30
2019-02-06T07:59:07.789Z,53.90
2019-02-06T08:03:12.895Z,48.00
2019-02-06T08:07:18.035Z,43.00
2019-02-06T08:11:23.112Z,39.40
2019-02-06T08:15:28.023Z,38.70
2019-02-06T08:19:33.112Z,39.00
2019-02-06T08:23:38.231Z,36.60
2019-02-06T08:27:43.319Z,36.70
2019-02-06T08:31:48.229Z,35.20
2019-02-06T08:35:53.318Z,32.20
2019-02-06T08:39:58.439Z,30.90
2019-02-06T08:44:03.817Z,32.20
2019-02-06T08:48:08.901Z,33.00
2019-02-06T08:52:14.008Z,34.60
2019-02-06T08:56:19.118Z,35.30
2019-02-06T09:00:38.219Z,35.50
2019-02-06T09:04:54.222Z,36.20
2019-02-06T09:08:59.263Z,35.30
2019-02-06T09:12:57.463Z,34.70
2019-02-06T09:17:02.569Z,32.40
2019-02-06T09:21:07.692Z,32.10
2019-02-06T09:25:18.535Z,32.10
2019-02-06T09:29:25.021Z,31.60
2019-02-06T09:33:30.500Z,33.00
2019-02-06T09:37:35.611Z,31.90
2019-02-06T09:41:40.911Z,31.90
2019-02-06T09:45:46.027Z,32.20
2019-02-06T09:49:51.134Z,30.70
2019-02-06T09:53:55.951Z,29.70
2019-02-06T09:58:02.028Z,30.20
2019-02-06T10:02:09.420Z,29.90
2019-02-06T10:06:13.911Z,29.10
2019-02-06T10:10:21.529Z,30.40
2019-02-06T10:14:26.644Z,28.10
2019-02-06T10:18:31.934Z,28.50
2019-02-06T10:22:37.146Z,28.00
2019-02-06T10:26:42.215Z,27.60
2019-02-06T10:30:48.863Z,27.10
2019-02-06T10:34:54.072Z,27.00
2019-02-06T10:38:58.884Z,27.90
2019-02-06T10:43:04.157Z,27.80
2019-02-06T10:47:09.272Z,29.80
2019-02-06T10:51:14.751Z,28.70
2019-02-06T10:55:20.191Z,28.80
2019-02-06T10:59:25.347Z,28.80
2019-02-06T11:03:30.456Z,27.40
2019-02-06T11:07:35.564Z,26.10
2019-02-06T11:11:40.751Z,28.90
2019-02-06T11:15:45.843Z,29.90
2019-02-06T11:19:50.948Z,30.00
2019-02-06T11:23:55.752Z,31.50
2019-02-06T11:28:00.847Z,31.30
2019-02-06T11:32:06.255Z,30.50
2019-02-06T11:36:11.355Z,33.70
2019-02-06T11:40:19.227Z,32.20
2019-02-06T11:44:25.382Z,30.50
2019-02-06T11:48:30.523Z,31.60
2019-02-06T11:52:35.620Z,32.30
2019-02-06T11:56:40.784Z,32.80
2019-02-06T12:00:50.279Z,31.40
2019-02-06T12:04:55.387Z,34.10
2019-02-06T12:09:00.497Z,34.50
2019-02-06T12:13:07.359Z,33.50
2019-02-06T12:17:12.463Z,33.90
2019-02-06T12:21:18.163Z,37.30
2019-02-06T12:25:23.414Z,38.40
2019-02-06T12:29:28.484Z,38.90
2019-02-06T12:33:36.536Z,39.00
2019-02-06T12:37:40.179Z,41.50
2019-02-06T12:41:45.130Z,43.30
2019-02-06T12:45:50.017Z,47.70
2019-02-06T12:49:54.851Z,49.90
2019-02-06T12:53:59.823Z,51.10
2019-02-06T12:58:05.859Z,51.60
2019-02-06T13:02:11.064Z,52.20
2019-02-06T13:06:15.988Z,53.30
2019-02-06T13:10:32.937Z,53.40
2019-02-06T13:14:28.969Z,53.70
2019-02-06T13:18:33.797Z,54.00
2019-02-06T13:22:38.608Z,54.60
2019-02-06T13:26:44.285Z,54.40
2019-02-06T13:30:49.176Z,54.50
2019-02-06T13:34:53.975Z,55.50
2019-02-06T13:38:59.100Z,55.80
2019-02-06T13:43:04.318Z,56.70
2019-02-06T13:47:10.310Z,57.00
2019-02-06T13:51:19.022Z,57.90
2019-02-06T13:55:21.824Z,58.00
2019-02-06T13:59:26.992Z,58.60
2019-02-06T14:03:31.987Z,59.50
2019-02-06T14:07:37.038Z,59.90
2019-02-06T14:11:42.022Z,60.10
2019-02-06T14:15:48.076Z,61.10
2019-02-06T14:19:52.931Z,61.90
2019-02-06T14:24:01.086Z,62.30
2019-02-06T14:28:24.956Z,62.70
2019-02-06T14:32:58.947Z,63.00
2019-02-06T14:37:39.147Z,63.70
2019-02-06T14:42:10.063Z,63.30
2019-02-06T14:46:37.758Z,64.10
2019-02-06T14:50:58.016Z,65.10
2019-02-06T14:55:15.150Z,65.80
2019-02-06T14:59:29.582Z,66.90
2019-02-06T15:03:58.625Z,68.10
2019-02-06T15:08:12.519Z,68.60
2019-02-06T15:12:35.791Z,70.40
2019-02-06T15:17:01.907Z,71.00
2019-02-06T15:21:13.155Z,72.20
2019-02-06T15:25:37.750Z,73.20
2019-02-06T15:30:00.630Z,74.20
2019-02-06T15:34:33.056Z,75.20
2019-02-06T15:39:16.175Z,76.10
2019-02-06T15:43:41.026Z,77.30
2019-02-06T15:48:01.134Z,78.10
2019-02-06T15:52:18.498Z,78.50
2019-02-06T15:56:44.341Z,79.40
2019-02-06T16:01:18.585Z,80.00
2019-02-06T16:05:36.868Z,80.70
2019-02-06T16:09:54.083Z,81.30
2019-02-06T16:14:23.332Z,82.40
2019-02-06T16:18:37.682Z,82.90
2019-02-06T16:23:01.222Z,83.70
2019-02-06T16:27:22.449Z,83.70
2019-02-06T16:31:47.936Z,83.40
2019-02-06T16:36:17.343Z,83.60
2019-02-06T16:40:46.572Z,83.70
2019-02-06T16:44:55.615Z,83.80
2019-02-06T16:49:17.467Z,84.40
2019-02-06T16:53:32.649Z,85.50
2019-02-06T16:57:43.946Z,87.30
2019-02-06T17:01:58.376Z,89.80
2019-02-06T17:06:06.504Z,90.20
2019-02-06T17:10:47.310Z,90.60
2019-02-06T17:14:58.620Z,90.90
2019-02-06T17:19:06.725Z,91.00
2019-02-06T17:23:24.036Z,90.90
2019-02-06T17:27:41.283Z,91.40
2019-02-06T17:32:04.019Z,91.80
2019-02-06T17:36:30.554Z,91.10
2019-02-06T17:40:44.887Z,90.90
2019-02-06T17:44:59.156Z,90.90
2019-02-06T17:49:24.476Z,90.80
2019-02-06T17:53:41.682Z,91.10
2019-02-06T17:57:47.764Z,91.00
2019-02-06T18:01:52.833Z,90.80
2019-02-06T18:05:59.678Z,91.10
2019-02-06T18:10:07.845Z,90.90
2019-02-06T18:14:14.922Z,91.10
2019-02-06T18:18:19.789Z,91.00
2019-02-06T18:26:42.478Z,90.50
2019-02-06T18:30:47.760Z,90.80
2019-02-06T18:34:52.627Z,90.80
2019-02-06T18:38:57.584Z,90.90
2019-02-06T18:43:03.247Z,90.80
2019-02-06T18:47:08.506Z,91.30
2019-02-06T18:51:13.332Z,90.80
2019-02-06T18:55:21.065Z,90.90
2019-02-06T18:59:25.123Z,90.90
2019-02-06T19:03:39.005Z,90.70
2019-02-06T19:07:44.239Z,90.40
2019-02-06T19:11:49.328Z,90.10
2019-02-06T19:15:56.589Z,89.90
2019-02-06T19:20:01.037Z,89.50
2019-02-06T19:24:06.235Z,89.70
2019-02-06T19:28:11.046Z,90.60
2019-02-06T19:32:16.663Z,90.70
2019-02-06T19:36:21.611Z,91.40
2019-02-06T19:40:26.441Z,90.70
2019-02-06T19:44:31.324Z,90.90
2019-02-06T19:48:36.239Z,91.20
2019-02-06T19:52:41.593Z,91.40
2019-02-06T19:56:46.444Z,91.90
2019-02-06T20:00:51.286Z,92.20
2019-02-06T20:04:56.266Z,92.20
2019-02-06T20:09:01.094Z,92.80
2019-02-06T20:13:11.325Z,92.70
2019-02-06T20:17:14.095Z,92.90
2019-02-06T20:21:18.974Z,93.40
2019-02-06T20:25:23.803Z,93.40
2019-02-06T20:29:28.632Z,93.30
2019-02-06T20:33:33.440Z,93.50
2019-02-06T20:37:38.732Z,93.10
2019-02-06T20:41:43.541Z,93.00
2019-02-06T20:45:48.495Z,93.00
2019-02-06T20:49:53.331Z,93.20
2019-02-06T20:53:58.146Z,93.50
2019-02-06T20:58:03.271Z,93.60
2019-02-06T21:02:08.345Z,93.70
2019-02-06T21:06:13.452Z,94.10
2019-02-06T21:10:20.323Z,94.30
2019-02-06T21:14:25.171Z,94.70
2019-02-06T21:18:29.960Z,94.70
2019-02-06T21:22:34.852Z,94.70
2019-02-06T21:26:39.679Z,94.80
2019-02-06T21:30:46.855Z,94.90
2019-02-06T21:34:51.050Z,94.90
2019-02-06T21:38:55.930Z,94.80
2019-02-06T21:43:01.085Z,95.10
2019-02-06T21:47:05.923Z,95.50
2019-02-06T21:51:11.060Z,95.60
2019-02-06T21:55:21.319Z,95.60
2019-02-06T21:59:26.128Z,96.30
2019-02-06T22:03:30.964Z,95.80
2019-02-06T22:07:36.118Z,95.40
2019-02-06T22:11:41.314Z,95.30
2019-02-06T22:15:46.559Z,95.10
2019-02-06T22:19:51.460Z,95.10
2019-02-06T22:23:56.532Z,95.20
2019-02-06T22:28:01.368Z,95.20
2019-02-06T22:32:06.253Z,95.20
2019-02-06T22:36:11.081Z,95.10
2019-02-06T22:40:18.616Z,95.10
2019-02-06T22:44:23.439Z,95.10
2019-02-06T22:48:28.575Z,95.20
2019-02-06T22:52:33.411Z,95.50
2019-02-06T22:56:41.147Z,95.50
2019-02-06T23:01:00.148Z,95.60
2019-02-06T23:05:06.460Z,95.70
2019-02-06T23:09:11.595Z,95.80
2019-02-06T23:13:16.688Z,95.50
2019-02-06T23:17:21.583Z,95.40
2019-02-06T23:21:26.392Z,95.40
2019-02-06T23:25:31.257Z,95.50
2019-02-06T23:29:36.084Z,95.60
2019-02-06T23:33:40.919Z,95.60
2019-02-06T23:37:46.202Z,95.50
2019-02-06T23:41:51.035Z,95.40
2019-02-06T23:45:55.860Z,95.80
2019-02-06T23:50:00.739Z,96.20
2019-02-06T23:54:05.875Z,96.00
2019-02-06T23:58:10.719Z,95.80
